KLHX

Details ICAO KLHX (LHX)
Name LA JUNTA MUNI
Region United States
Timezone America/Denver (UTC-6.0)
Plans Departing 4
Arriving 6
Stats Elevation 4,238 ft / 1,292 m (AMSL)
Location 38.049862° -103.509245°
Runways 2
Magnetic Variation 7.259° E
Sunrise 2018-05-24 11:38:22 UTC / 2018-05-24 05:38:22 Local
Sunset 2018-05-25 02:06:18 UTC / 2018-05-24 20:06:18 Local
Advertisement - Login to hide

Runways

ID Width Length Bearing (true) Bearing (mag) Surface Threshold Offset Overrun Length
08 75 ft / 23 m 6,834 ft / 2,083 m 89.80° 82.54° Asphalt 0 ft / 0 m 0 ft / 0 m
12 60 ft / 18 m 5,800 ft / 1,768 m 135.34° 128.08° Asphalt 0 ft / 0 m 0 ft / 0 m
26 75 ft / 23 m 6,834 ft / 2,083 m 269.81° 262.55° Asphalt 0 ft / 0 m 0 ft / 0 m
30 60 ft / 18 m 5,800 ft / 1,768 m 315.35° 308.09° Asphalt 0 ft / 0 m 0 ft / 0 m

Map

Weather


0- 5 10 15 20 25 30 35+ Temperature / ° C

Clouds and Precipitation
Forecast for 2018-05-24 12:00 UTC. Updated 3 hours ago

Ground ~20,000 ft ~40,000 ft Winds

METAR

KLHX 241353Z AUTO 26008KT 10SM CLR 21/12 A3006 RMK AO2 SLP119 T02110122 $

TAF

Not found

Frequencies

Recorded 135.52 MHz ASOS
Unicom 123.00 MHz CTAF/UNICOM
Warning: Do not use this data for real-world aviation or navigation. No guarantee of current accuracy is given.